createdAt,value
2017-10-25T00:01:01.897Z,14.20
2017-10-25T00:03:27.833Z,14.10
2017-10-25T00:05:53.794Z,14.00
2017-10-25T00:08:19.779Z,14.00
2017-10-25T00:10:46.502Z,14.10
2017-10-25T00:13:13.248Z,14.10
2017-10-25T00:15:39.249Z,14.10
2017-10-25T00:18:05.298Z,14.10
2017-10-25T00:20:31.261Z,14.00
2017-10-25T00:22:57.953Z,13.90
2017-10-25T00:25:23.939Z,13.90
2017-10-25T00:27:49.885Z,13.90
2017-10-25T00:30:15.890Z,13.80
2017-10-25T00:32:41.898Z,13.70
2017-10-25T00:35:07.886Z,13.70
2017-10-25T00:37:33.869Z,13.70
2017-10-25T00:39:59.823Z,13.70
2017-10-25T00:42:25.803Z,13.70
2017-10-25T00:44:53.240Z,13.70
2017-10-25T00:47:19.218Z,13.70
2017-10-25T00:49:45.194Z,13.60
2017-10-25T00:52:11.214Z,13.60
2017-10-25T00:54:37.945Z,13.70
2017-10-25T00:57:04.719Z,13.60
2017-10-25T00:59:31.450Z,13.60
2017-10-25T01:01:57.386Z,13.50
2017-10-25T01:04:23.358Z,13.60
2017-10-25T01:06:49.338Z,13.60
2017-10-25T01:09:15.321Z,13.70
2017-10-25T01:11:41.310Z,13.60
2017-10-25T01:14:07.300Z,13.70
2017-10-25T01:16:33.290Z,13.70
2017-10-25T01:19:00.782Z,13.70
2017-10-25T01:21:27.517Z,13.80
2017-10-25T01:23:53.494Z,13.80
2017-10-25T01:26:19.476Z,13.90
2017-10-25T01:28:45.466Z,13.90
2017-10-25T01:31:11.405Z,14.10
2017-10-25T01:33:37.387Z,13.90
2017-10-25T01:36:04.977Z,14.00
2017-10-25T01:38:30.915Z,14.00
2017-10-25T01:40:56.886Z,14.00
2017-10-25T01:43:22.852Z,14.10
2017-10-25T01:45:48.874Z,14.30
2017-10-25T01:48:14.862Z,14.50
2017-10-25T01:50:41.568Z,14.50
2017-10-25T01:53:07.601Z,14.50
2017-10-25T01:55:33.578Z,14.60
2017-10-25T01:57:59.521Z,14.60
2017-10-25T02:00:25.464Z,14.70
2017-10-25T02:02:52.190Z,14.60
2017-10-25T02:05:18.129Z,14.60
2017-10-25T02:07:44.133Z,14.70
2017-10-25T02:10:10.098Z,14.60
2017-10-25T02:12:36.881Z,14.40
2017-10-25T02:15:03.577Z,14.40
2017-10-25T02:17:29.526Z,14.30
2017-10-25T02:19:55.514Z,14.30
2017-10-25T02:22:21.493Z,14.30
2017-10-25T02:24:47.473Z,14.30
2017-10-25T02:27:14.205Z,14.30
2017-10-25T02:29:40.174Z,14.30
2017-10-25T02:32:06.969Z,14.20
2017-10-25T02:34:32.957Z,14.20
2017-10-25T02:36:59.654Z,14.20
2017-10-25T02:39:25.636Z,14.20
2017-10-25T02:41:52.365Z,14.00
2017-10-25T02:44:18.313Z,14.00
2017-10-25T02:46:44.314Z,13.90
2017-10-25T02:49:10.453Z,14.00
2017-10-25T02:51:36.489Z,14.00
2017-10-25T02:54:02.474Z,14.00
2017-10-25T02:56:29.182Z,14.00
2017-10-25T02:58:55.165Z,14.00
2017-10-25T03:01:21.889Z,14.10
2017-10-25T03:03:47.838Z,14.10
2017-10-25T03:06:14.578Z,14.10
2017-10-25T03:08:40.601Z,14.10
2017-10-25T03:11:06.606Z,14.10
2017-10-25T03:13:32.593Z,14.10
2017-10-25T03:16:00.067Z,14.00
2017-10-25T03:18:26.010Z,14.00
2017-10-25T03:20:51.971Z,13.90
2017-10-25T03:23:17.962Z,14.00
2017-10-25T03:25:43.938Z,14.00
2017-10-25T03:28:10.697Z,14.10
2017-10-25T03:30:37.458Z,14.10
2017-10-25T03:33:03.517Z,14.10
2017-10-25T03:35:29.471Z,14.10
2017-10-25T03:37:55.454Z,14.20
2017-10-25T03:40:22.166Z,14.10
2017-10-25T03:42:48.111Z,14.00
2017-10-25T03:45:14.137Z,14.10
2017-10-25T03:47:40.120Z,14.10
2017-10-25T03:50:06.842Z,14.10
2017-10-25T03:52:32.852Z,14.10
2017-10-25T03:54:58.822Z,14.00
2017-10-25T03:57:24.801Z,14.00
2017-10-25T03:59:50.751Z,14.00
2017-10-25T04:02:16.744Z,14.00
2017-10-25T04:04:43.483Z,14.10
2017-10-25T04:07:10.193Z,14.00
2017-10-25T04:09:36.201Z,14.00
2017-10-25T04:12:02.180Z,14.00
2017-10-25T04:14:28.174Z,14.00
2017-10-25T04:16:54.129Z,14.00
2017-10-25T04:19:20.123Z,14.00
2017-10-25T04:21:46.872Z,14.00
2017-10-25T04:24:12.887Z,14.00
2017-10-25T04:26:38.893Z,14.00
2017-10-25T04:29:04.988Z,14.00
2017-10-25T04:31:31.724Z,14.00
2017-10-25T04:33:57.753Z,14.00
2017-10-25T04:36:23.698Z,14.00
2017-10-25T04:38:49.683Z,14.00
2017-10-25T04:41:15.645Z,14.10
2017-10-25T04:43:41.642Z,14.00
2017-10-25T04:46:07.682Z,14.00
2017-10-25T04:48:33.678Z,14.00
2017-10-25T04:50:59.666Z,14.20
2017-10-25T04:53:25.710Z,14.20
2017-10-25T04:55:51.657Z,14.20
2017-10-25T04:58:17.656Z,14.20
2017-10-25T05:00:44.345Z,14.10
2017-10-25T05:03:10.436Z,14.10
2017-10-25T05:05:37.158Z,14.10
2017-10-25T05:08:03.153Z,14.10
2017-10-25T05:10:29.093Z,14.00
2017-10-25T05:12:55.041Z,14.10
2017-10-25T05:15:21.018Z,14.10
2017-10-25T05:17:47.021Z,14.10
2017-10-25T05:20:12.968Z,14.10
2017-10-25T05:22:38.947Z,14.10
2017-10-25T05:25:05.689Z,14.20
2017-10-25T05:27:31.630Z,14.20
2017-10-25T05:29:58.366Z,14.30
2017-10-25T05:32:24.325Z,14.30
2017-10-25T05:34:51.040Z,14.50
2017-10-25T05:37:17.079Z,14.50
2017-10-25T05:39:43.041Z,14.50
2017-10-25T05:42:09.794Z,14.60
2017-10-25T05:44:35.863Z,14.60
2017-10-25T05:47:01.872Z,14.70
2017-10-25T05:49:28.594Z,14.80
2017-10-25T05:51:54.573Z,14.80
2017-10-25T05:54:21.304Z,14.80
2017-10-25T05:56:47.265Z,14.80
2017-10-25T05:59:13.261Z,14.80
2017-10-25T06:01:39.301Z,15.00
2017-10-25T06:04:05.521Z,14.90
2017-10-25T06:06:31.505Z,14.90
2017-10-25T06:08:58.225Z,14.80
2017-10-25T06:11:24.210Z,14.80
2017-10-25T06:13:50.200Z,14.90
2017-10-25T06:16:16.183Z,14.90
2017-10-25T06:18:42.217Z,14.90
2017-10-25T06:21:08.213Z,15.00
2017-10-25T06:23:34.969Z,15.00
2017-10-25T06:26:00.946Z,15.10
2017-10-25T06:28:26.930Z,15.00
2017-10-25T06:30:52.884Z,15.00
2017-10-25T06:33:18.873Z,15.10
2017-10-25T06:35:44.838Z,15.10
2017-10-25T06:38:10.854Z,15.20
2017-10-25T06:40:36.837Z,15.20
2017-10-25T06:43:03.565Z,15.30
2017-10-25T06:45:29.513Z,15.30
2017-10-25T06:47:55.506Z,15.50
2017-10-25T06:50:21.493Z,15.40
2017-10-25T06:52:48.181Z,15.40
2017-10-25T06:55:14.154Z,15.40
2017-10-25T06:57:40.204Z,15.40
2017-10-25T07:00:06.228Z,15.40
2017-10-25T07:02:32.198Z,15.30
2017-10-25T07:04:58.941Z,15.40
2017-10-25T07:07:24.909Z,15.40
2017-10-25T07:09:50.861Z,15.50
2017-10-25T07:12:16.874Z,15.60
2017-10-25T07:14:42.861Z,15.60
2017-10-25T07:17:08.889Z,15.60
2017-10-25T07:19:34.926Z,15.70
2017-10-25T07:22:00.914Z,15.60
2017-10-25T07:24:26.913Z,15.60
2017-10-25T07:26:52.880Z,15.60
2017-10-25T07:29:19.583Z,15.70
2017-10-25T07:31:45.570Z,15.60
2017-10-25T07:34:12.318Z,15.70
2017-10-25T07:36:39.105Z,15.70
2017-10-25T07:39:05.089Z,15.70
2017-10-25T07:41:31.046Z,15.70
2017-10-25T07:43:57.801Z,15.80
2017-10-25T07:46:30.271Z,15.80
2017-10-25T07:48:56.249Z,15.90
2017-10-25T07:51:22.201Z,15.80
2017-10-25T07:53:48.210Z,15.80
2017-10-25T07:56:14.913Z,15.90
2017-10-25T07:58:40.896Z,15.90
2017-10-25T08:01:07.687Z,15.80
2017-10-25T08:03:33.657Z,15.80
2017-10-25T08:05:59.655Z,15.90
2017-10-25T08:08:25.615Z,15.90
2017-10-25T08:10:51.617Z,16.00
2017-10-25T08:13:17.579Z,16.10
2017-10-25T08:15:43.554Z,16.20
2017-10-25T08:18:10.362Z,16.10
2017-10-25T08:20:36.362Z,16.10
2017-10-25T08:23:02.375Z,16.10
2017-10-25T08:25:28.319Z,16.20
2017-10-25T08:27:55.013Z,16.20
2017-10-25T08:30:20.993Z,16.20
2017-10-25T08:32:47.028Z,16.30
2017-10-25T08:35:13.034Z,16.30
2017-10-25T08:37:39.062Z,16.30
2017-10-25T08:40:05.105Z,16.20
2017-10-25T08:42:31.257Z,16.20
2017-10-25T08:44:57.261Z,16.20
2017-10-25T08:47:23.260Z,16.30
2017-10-25T08:49:50.693Z,16.20
2017-10-25T08:52:16.719Z,16.20
2017-10-25T08:54:42.681Z,16.40
2017-10-25T08:57:08.714Z,16.30
2017-10-25T08:59:34.699Z,16.40
2017-10-25T09:02:01.402Z,16.50
2017-10-25T09:04:27.389Z,16.50
2017-10-25T09:06:54.108Z,16.60
2017-10-25T09:09:20.107Z,16.60
2017-10-25T09:11:46.052Z,16.70
2017-10-25T09:14:12.024Z,16.90
2017-10-25T09:16:38.056Z,17.00
2017-10-25T09:19:04.040Z,16.90
2017-10-25T09:21:30.024Z,16.90
2017-10-25T09:23:55.994Z,17.10
2017-10-25T09:26:22.685Z,17.30
2017-10-25T09:28:48.679Z,17.30
2017-10-25T09:31:15.373Z,17.20
2017-10-25T09:33:41.361Z,17.20
2017-10-25T09:36:07.378Z,17.30
2017-10-25T09:38:33.337Z,17.20
2017-10-25T09:41:00.067Z,17.30
2017-10-25T09:43:26.024Z,17.30
2017-10-25T09:45:52.762Z,17.30
2017-10-25T09:48:18.721Z,17.20
2017-10-25T09:50:44.717Z,17.30
2017-10-25T09:53:10.727Z,17.50
2017-10-25T09:55:36.834Z,17.50
2017-10-25T09:58:02.817Z,17.60
2017-10-25T10:00:28.770Z,17.60
2017-10-25T10:02:55.573Z,17.60
2017-10-25T10:05:21.561Z,17.50
2017-10-25T10:07:47.500Z,17.60
2017-10-25T10:10:13.497Z,17.60
2017-10-25T10:12:39.489Z,17.60
2017-10-25T10:15:06.327Z,17.80
2017-10-25T10:17:32.310Z,17.80
2017-10-25T10:19:58.290Z,17.80
2017-10-25T10:22:24.241Z,17.80
2017-10-25T10:24:50.246Z,17.90
2017-10-25T10:27:16.202Z,17.80
2017-10-25T10:29:49.218Z,17.90
2017-10-25T10:32:15.207Z,17.90
2017-10-25T10:34:41.332Z,17.90
2017-10-25T10:37:07.376Z,18.00
2017-10-25T10:39:33.374Z,18.00
2017-10-25T10:42:00.132Z,18.10
2017-10-25T10:44:26.830Z,18.10
2017-10-25T10:46:52.814Z,18.10
2017-10-25T10:49:18.798Z,17.90
2017-10-25T10:51:44.773Z,17.80
2017-10-25T10:54:11.510Z,18.00
2017-10-25T10:56:37.551Z,18.00
2017-10-25T10:59:03.500Z,17.90
2017-10-25T11:01:29.477Z,18.10
2017-10-25T11:03:55.437Z,18.30
2017-10-25T11:06:21.374Z,18.20
2017-10-25T11:08:47.367Z,18.30
2017-10-25T11:11:14.089Z,18.50
2017-10-25T11:13:40.129Z,18.50
2017-10-25T11:16:06.133Z,18.40
2017-10-25T11:18:32.090Z,18.30
2017-10-25T11:20:58.099Z,18.30
2017-10-25T11:23:24.049Z,18.10
2017-10-25T11:25:49.997Z,18.20
2017-10-25T11:28:15.978Z,18.30
2017-10-25T11:30:41.955Z,18.40
2017-10-25T11:33:08.142Z,18.40
2017-10-25T11:35:34.976Z,18.50
2017-10-25T11:38:01.684Z,18.50
2017-10-25T11:40:27.665Z,18.50
2017-10-25T11:42:53.669Z,18.50
2017-10-25T11:45:19.671Z,18.50
2017-10-25T11:47:46.385Z,18.80
2017-10-25T11:50:12.442Z,18.80
2017-10-25T11:52:39.181Z,19.00
2017-10-25T11:55:05.255Z,19.00
2017-10-25T11:57:31.222Z,19.00
2017-10-25T11:59:57.209Z,19.20
2017-10-25T12:02:23.906Z,19.30
2017-10-25T12:04:49.899Z,19.30
2017-10-25T12:07:16.604Z,19.80
2017-10-25T12:09:42.591Z,19.80
2017-10-25T12:12:09.391Z,19.70
2017-10-25T12:14:35.445Z,19.70
2017-10-25T12:17:01.422Z,19.50
2017-10-25T12:19:28.157Z,19.20
2017-10-25T12:21:54.105Z,19.20
2017-10-25T12:24:20.834Z,18.80
2017-10-25T12:26:46.806Z,18.80
2017-10-25T12:29:13.591Z,18.80
2017-10-25T12:31:39.650Z,18.80
2017-10-25T12:34:05.706Z,18.80
2017-10-25T12:36:32.474Z,18.90
2017-10-25T12:38:59.222Z,19.10
2017-10-25T12:41:25.170Z,19.10
2017-10-25T12:43:51.893Z,19.20
2017-10-25T12:46:17.879Z,19.20
2017-10-25T12:48:43.911Z,18.80
2017-10-25T12:51:09.935Z,19.10
2017-10-25T12:53:36.700Z,19.10
2017-10-25T12:56:02.709Z,19.10
2017-10-25T12:58:28.661Z,19.10
2017-10-25T13:00:55.369Z,19.10
2017-10-25T13:03:21.355Z,19.10
2017-10-25T13:05:47.317Z,19.20
2017-10-25T13:08:13.338Z,20.00
2017-10-25T13:10:41.986Z,20.70
2017-10-25T13:13:10.563Z,20.50
2017-10-25T13:15:39.539Z,20.80
2017-10-25T13:18:08.503Z,20.90
2017-10-25T13:20:41.350Z,21.60
2017-10-25T13:23:07.707Z,21.20
2017-10-25T13:25:33.709Z,20.80
2017-10-25T13:28:00.397Z,20.80
2017-10-25T13:30:26.387Z,20.80
2017-10-25T13:32:53.090Z,20.90
2017-10-25T13:35:19.097Z,20.90
2017-10-25T13:37:52.089Z,21.10
2017-10-25T13:40:18.838Z,20.60
2017-10-25T13:42:45.565Z,20.60
2017-10-25T13:45:11.554Z,20.50
2017-10-25T13:47:37.584Z,20.30
2017-10-25T13:50:03.550Z,20.20
2017-10-25T13:52:29.554Z,19.80
2017-10-25T13:54:55.509Z,19.70
2017-10-25T13:57:21.502Z,19.70
2017-10-25T13:59:47.603Z,19.50
2017-10-25T14:02:13.969Z,19.60
2017-10-25T14:04:39.984Z,19.50
2017-10-25T14:07:06.037Z,19.40
2017-10-25T14:09:32.010Z,19.60
2017-10-25T14:11:58.725Z,19.70
2017-10-25T14:14:24.710Z,19.60
2017-10-25T14:16:50.677Z,19.20
2017-10-25T14:19:16.670Z,19.20
2017-10-25T14:21:43.377Z,19.00
2017-10-25T14:24:09.414Z,19.00
2017-10-25T14:26:47.820Z,19.00
2017-10-25T14:29:13.838Z,19.00
2017-10-25T14:31:39.835Z,19.10
2017-10-25T14:34:05.839Z,19.00
2017-10-25T14:36:31.801Z,19.10
2017-10-25T14:38:57.749Z,19.10
2017-10-25T14:41:23.769Z,18.80
2017-10-25T14:43:49.721Z,18.60
2017-10-25T14:46:15.726Z,18.60
2017-10-25T14:48:41.745Z,18.70
2017-10-25T14:51:07.704Z,18.80
2017-10-25T14:53:33.698Z,18.70
2017-10-25T14:55:59.649Z,18.70
2017-10-25T14:58:25.636Z,18.60
2017-10-25T15:00:51.628Z,18.60
2017-10-25T15:03:17.593Z,18.50
2017-10-25T15:05:43.606Z,18.40
2017-10-25T15:08:09.628Z,18.40
2017-10-25T15:10:35.625Z,18.30
2017-10-25T15:13:01.569Z,18.20
2017-10-25T15:15:28.301Z,18.10
2017-10-25T15:17:54.262Z,18.10
2017-10-25T15:20:20.965Z,18.10
2017-10-25T15:22:46.990Z,18.10
2017-10-25T15:25:13.013Z,18.00
2017-10-25T15:27:39.056Z,18.10
2017-10-25T15:30:05.022Z,18.10
2017-10-25T15:32:30.972Z,18.00
2017-10-25T15:34:56.969Z,18.00
2017-10-25T15:37:22.918Z,18.00
2017-10-25T15:39:48.901Z,17.90
2017-10-25T15:42:15.605Z,18.00
2017-10-25T15:44:41.642Z,17.90
2017-10-25T15:47:07.597Z,17.90
2017-10-25T15:49:33.608Z,17.80
2017-10-25T15:51:59.562Z,17.80
2017-10-25T15:54:25.545Z,17.80
2017-10-25T15:56:52.282Z,17.90
2017-10-25T15:59:18.977Z,17.90
2017-10-25T16:01:44.976Z,17.90
2017-10-25T16:04:10.982Z,17.80
2017-10-25T16:06:37.045Z,17.70
2017-10-25T16:09:03.773Z,17.50
2017-10-25T16:11:29.726Z,17.50
2017-10-25T16:13:56.463Z,17.30
2017-10-25T16:16:22.429Z,17.30
2017-10-25T16:18:49.125Z,17.40
2017-10-25T16:21:15.158Z,17.40
2017-10-25T16:23:41.196Z,17.40
2017-10-25T16:26:07.291Z,17.50
2017-10-25T16:28:34.021Z,17.50
2017-10-25T16:30:59.973Z,17.50
2017-10-25T16:33:26.026Z,17.60
2017-10-25T16:35:52.751Z,17.50
2017-10-25T16:38:20.241Z,17.60
2017-10-25T16:40:47.016Z,17.70
2017-10-25T16:43:13.083Z,17.70
2017-10-25T16:45:39.148Z,17.70
2017-10-25T16:48:05.148Z,17.60
2017-10-25T16:50:31.138Z,17.50
2017-10-25T16:52:57.089Z,17.50
2017-10-25T16:55:23.786Z,17.30
2017-10-25T16:57:49.809Z,17.30
2017-10-25T17:00:15.811Z,17.30
2017-10-25T17:02:42.607Z,17.20
2017-10-25T17:05:08.623Z,17.20
2017-10-25T17:07:34.617Z,17.10
2017-10-25T17:10:00.599Z,17.30
2017-10-25T17:12:26.581Z,17.30
2017-10-25T17:14:52.561Z,17.30
2017-10-25T17:17:18.594Z,17.60
2017-10-25T17:19:44.606Z,17.50
2017-10-25T17:22:11.414Z,17.50
2017-10-25T17:24:37.382Z,17.50
2017-10-25T17:27:03.366Z,17.50
2017-10-25T17:29:29.329Z,17.50
2017-10-25T17:31:55.353Z,17.50
2017-10-25T17:34:21.305Z,17.40
2017-10-25T17:36:47.326Z,17.30
2017-10-25T17:39:13.329Z,17.30
2017-10-25T17:41:40.069Z,17.20
2017-10-25T17:44:06.793Z,17.20
2017-10-25T17:46:32.749Z,17.20
2017-10-25T17:48:58.740Z,17.10
2017-10-25T17:51:24.689Z,17.10
2017-10-25T17:53:50.646Z,17.10
2017-10-25T17:56:16.716Z,17.00
2017-10-25T17:58:43.452Z,17.10
2017-10-25T18:01:09.490Z,17.00
2017-10-25T18:03:35.477Z,17.10
2017-10-25T18:06:01.434Z,17.00
2017-10-25T18:08:27.414Z,17.10
2017-10-25T18:10:54.138Z,17.10
2017-10-25T18:13:20.096Z,17.10
2017-10-25T18:15:46.981Z,17.10
2017-10-25T18:18:13.009Z,17.10
2017-10-25T18:20:39.043Z,17.10
2017-10-25T18:23:05.012Z,17.10
2017-10-25T18:25:30.994Z,17.00
2017-10-25T18:27:57.703Z,17.00
2017-10-25T18:30:23.692Z,17.00
2017-10-25T18:32:50.423Z,16.90
2017-10-25T18:35:16.446Z,16.80
2017-10-25T18:37:42.474Z,16.80
2017-10-25T18:40:08.570Z,16.80
2017-10-25T18:42:34.561Z,16.80
2017-10-25T18:45:00.534Z,16.80
2017-10-25T18:47:27.230Z,16.80
2017-10-25T18:49:53.215Z,16.70
2017-10-25T18:52:19.918Z,16.70
2017-10-25T18:54:45.968Z,16.70
2017-10-25T18:57:12.009Z,16.70
2017-10-25T18:59:38.698Z,16.70
2017-10-25T19:02:05.397Z,16.60
2017-10-25T19:04:31.362Z,16.60
2017-10-25T19:06:57.345Z,16.70
2017-10-25T19:09:23.293Z,16.50
2017-10-25T19:11:49.250Z,16.40
2017-10-25T19:14:15.250Z,16.40
2017-10-25T19:16:41.214Z,16.40
2017-10-25T19:19:07.161Z,16.30
2017-10-25T19:21:33.158Z,16.30
2017-10-25T19:23:59.133Z,16.20
2017-10-25T19:26:25.094Z,16.10
2017-10-25T19:28:51.101Z,16.10
2017-10-25T19:31:17.062Z,16.10
2017-10-25T19:33:43.060Z,16.10
2017-10-25T19:36:09.080Z,16.10
2017-10-25T19:38:35.094Z,16.00
2017-10-25T19:41:01.782Z,15.90
2017-10-25T19:43:42.762Z,15.90
2017-10-25T19:46:08.735Z,15.90
2017-10-25T19:48:35.445Z,15.80
2017-10-25T19:51:01.421Z,15.80
2017-10-25T19:53:27.386Z,15.80
2017-10-25T19:55:54.074Z,15.80
2017-10-25T19:58:20.065Z,15.80
2017-10-25T20:00:46.041Z,15.80
2017-10-25T20:03:12.060Z,15.80
2017-10-25T20:05:38.045Z,15.90
2017-10-25T20:08:04.021Z,15.90
2017-10-25T20:10:30.754Z,15.80
2017-10-25T20:12:56.707Z,15.70
2017-10-25T20:15:23.441Z,16.00
2017-10-25T20:17:49.389Z,16.00
2017-10-25T20:20:15.345Z,15.90
2017-10-25T20:22:41.338Z,16.00
2017-10-25T20:25:07.277Z,15.90
2017-10-25T20:27:33.260Z,15.80
2017-10-25T20:29:59.200Z,15.90
2017-10-25T20:32:25.239Z,15.90
2017-10-25T20:34:51.222Z,15.90
2017-10-25T20:37:17.170Z,15.90
2017-10-25T20:39:43.172Z,15.90
2017-10-25T20:42:09.144Z,15.90
2017-10-25T20:44:35.130Z,16.10
2017-10-25T20:47:01.077Z,16.00
2017-10-25T20:49:27.057Z,16.00
2017-10-25T20:51:53.778Z,16.00
2017-10-25T20:54:19.734Z,16.00
2017-10-25T20:56:45.717Z,16.00
2017-10-25T20:59:11.682Z,15.90
2017-10-25T21:01:37.674Z,15.90
2017-10-25T21:04:03.649Z,15.80
2017-10-25T21:06:29.665Z,15.80
2017-10-25T21:08:55.618Z,15.80
2017-10-25T21:11:21.586Z,15.70
2017-10-25T21:13:47.671Z,15.70
2017-10-25T21:16:13.686Z,15.70
2017-10-25T21:18:40.401Z,15.70
2017-10-25T21:21:06.353Z,15.70
2017-10-25T21:23:32.333Z,15.70
2017-10-25T21:25:58.292Z,15.60
2017-10-25T21:28:24.290Z,15.70
2017-10-25T21:30:50.272Z,15.70
2017-10-25T21:33:16.249Z,15.60
2017-10-25T21:35:43.072Z,15.60
2017-10-25T21:38:09.090Z,15.60
2017-10-25T21:40:35.109Z,15.60
2017-10-25T21:43:01.077Z,15.60
2017-10-25T21:45:27.066Z,15.60
2017-10-25T21:47:53.058Z,15.60
2017-10-25T21:50:19.019Z,15.60
2017-10-25T21:52:45.794Z,15.40
2017-10-25T21:55:11.776Z,15.40
2017-10-25T21:57:37.769Z,15.40
2017-10-25T22:00:03.757Z,15.50
2017-10-25T22:02:29.710Z,15.50
2017-10-25T22:04:56.438Z,15.40
2017-10-25T22:07:22.398Z,15.40
2017-10-25T22:09:49.148Z,15.40
2017-10-25T22:12:15.867Z,15.50
2017-10-25T22:14:41.890Z,15.50
2017-10-25T22:17:07.890Z,15.50
2017-10-25T22:19:34.592Z,15.50
2017-10-25T22:22:00.554Z,15.50
2017-10-25T22:24:26.543Z,15.50
2017-10-25T22:26:52.489Z,15.50
2017-10-25T22:29:18.495Z,15.50
2017-10-25T22:31:44.466Z,15.50
2017-10-25T22:34:10.427Z,15.40
2017-10-25T22:36:36.421Z,15.40
2017-10-25T22:39:02.372Z,15.40
2017-10-25T22:41:28.338Z,15.40
2017-10-25T22:43:54.331Z,15.40
2017-10-25T22:46:20.273Z,15.50
2017-10-25T22:48:46.263Z,15.50
2017-10-25T22:51:13.021Z,15.40
2017-10-25T22:53:39.774Z,15.40
2017-10-25T22:56:05.729Z,15.40
2017-10-25T22:58:31.709Z,15.40
2017-10-25T23:00:57.683Z,15.40
2017-10-25T23:03:24.455Z,15.50
2017-10-25T23:05:50.441Z,15.50
2017-10-25T23:08:16.433Z,15.50
2017-10-25T23:10:43.178Z,15.30
2017-10-25T23:13:09.171Z,15.30
2017-10-25T23:15:35.157Z,15.20
2017-10-25T23:18:01.105Z,15.20
2017-10-25T23:20:27.098Z,15.20
2017-10-25T23:22:53.837Z,15.20
2017-10-25T23:25:19.821Z,15.10
2017-10-25T23:27:45.814Z,15.10
2017-10-25T23:30:11.841Z,15.10
2017-10-25T23:32:37.841Z,15.10
2017-10-25T23:35:03.804Z,15.10
2017-10-25T23:37:29.789Z,15.10
2017-10-25T23:39:55.813Z,15.10
2017-10-25T23:42:22.554Z,15.00
2017-10-25T23:44:48.516Z,15.00
2017-10-25T23:47:14.526Z,14.90
2017-10-25T23:49:41.278Z,14.90
2017-10-25T23:52:07.262Z,14.80
2017-10-25T23:54:40.149Z,14.80
2017-10-25T23:57:06.129Z,14.90
2017-10-25T23:59:32.093Z,14.80
